Time;durP1;ratioP1;P1;durP2;ratioP2;P2;SDS_P1;SDS_P2;PMS_P1;PMS_P2;Temp;Humidity;BMP_temperature;BMP_pressure;BME280_temperature;BME280_humidity;BME280_pressure;Samples;Min_cycle;Max_cycle;Signal;HPM_P1;HPM_P2
2023/07/15 00:01:36;;;;;;;3.22;1.80;;;;;;;20.99;74.10;97938.56;4143146;28;20217;-46
2023/07/15 00:03:38;;;;;;;2.70;2.35;;;;;;;20.99;74.33;97933.00;4153072;28;20209;-46
2023/07/15 00:05:40;;;;;;;2.67;2.30;;;;;;;21.00;74.53;97929.06;4144156;28;20212;-46
2023/07/15 00:07:42;;;;;;;2.45;2.25;;;;;;;21.04;74.88;97930.03;4142643;28;20241;-45
2023/07/15 00:09:43;;;;;;;3.15;2.05;;;;;;;20.92;74.92;97927.13;4144779;28;20196;-45
2023/07/15 00:11:45;;;;;;;3.05;2.63;;;;;;;20.96;75.01;97928.06;4135278;28;20204;-46
2023/07/15 00:13:48;;;;;;;2.85;1.95;;;;;;;20.96;75.41;97928.06;4138158;28;20219;-46
2023/07/15 00:15:53;;;;;;;5.65;2.35;;;;;;;20.87;75.09;97922.56;4136664;28;20213;-46
2023/07/15 00:17:55;;;;;;;2.63;2.00;;;;;;;20.87;75.25;97924.47;4142568;28;20626;-45
2023/07/15 00:19:57;;;;;;;2.28;1.92;;;;;;;20.85;75.08;97927.56;4144510;28;20239;-45
2023/07/15 00:21:59;;;;;;;3.30;2.33;;;;;;;20.83;75.30;97929.06;4144291;28;20208;-45
2023/07/15 00:24:01;;;;;;;7.30;3.85;;;;;;;20.80;76.42;97925.00;4127210;28;20236;-46
2023/07/15 00:26:03;;;;;;;4.43;4.03;;;;;;;20.74;76.17;97919.91;4136890;28;20212;-45
2023/07/15 00:28:05;;;;;;;4.30;3.78;;;;;;;20.76;77.18;97923.19;4138502;28;21210;-46
2023/07/15 00:30:08;;;;;;;3.40;3.10;;;;;;;20.67;76.65;97920.44;4144794;28;20239;-45
2023/07/15 00:32:12;;;;;;;2.90;2.50;;;;;;;20.64;76.81;97909.97;4144938;28;20652;-46
2023/07/15 00:34:14;;;;;;;3.03;2.38;;;;;;;20.59;77.24;97917.66;4117927;28;20260;-45
2023/07/15 00:36:16;;;;;;;3.78;1.73;;;;;;;20.57;77.14;97922.75;4136803;28;20228;-45
2023/07/15 00:38:18;;;;;;;3.60;2.10;;;;;;;20.53;77.00;97924.53;4144045;28;20235;-45
2023/07/15 00:40:19;;;;;;;2.13;1.85;;;;;;;20.55;77.50;97913.88;4137711;28;20582;-45
2023/07/15 00:43:10;;;;;;;2.28;2.10;;;;;;;20.48;77.17;97905.22;4127597;28;20248;-45
2023/07/15 00:45:11;;;;;;;2.13;1.92;;;;;;;20.51;77.78;97904.59;4151777;28;20212;-45
2023/07/15 00:47:25;;;;;;;3.05;2.05;;;;;;;20.46;77.13;97924.22;4143890;28;20348;-45
2023/07/15 00:49:30;;;;;;;4.43;2.00;;;;;;;20.44;77.61;97926.50;4133405;28;20279;-46
2023/07/15 00:51:35;;;;;;;2.30;1.77;;;;;;;20.38;78.34;97917.50;4141860;28;20197;-46
2023/07/15 00:53:36;;;;;;;5.13;1.85;;;;;;;20.36;77.92;97916.19;4137511;28;20679;-45
2023/07/15 00:55:38;;;;;;;3.63;2.10;;;;;;;20.34;78.40;97918.50;4127281;28;20209;-46
2023/07/15 00:57:41;;;;;;;3.10;2.00;;;;;;;20.42;78.48;97918.50;4126794;28;20233;-45
2023/07/15 00:59:44;;;;;;;1.90;1.40;;;;;;;20.25;78.45;97923.25;4142050;28;20260;-47
2023/07/15 01:01:47;;;;;;;4.13;1.80;;;;;;;20.20;78.53;97927.00;4147973;28;20208;-45
2023/07/15 01:03:48;;;;;;;2.50;1.60;;;;;;;20.23;79.08;97922.72;4122842;28;20663;-45
2023/07/15 01:05:51;;;;;;;2.70;1.95;;;;;;;20.20;79.13;97928.94;4134718;28;20288;-46
2023/07/15 01:07:53;;;;;;;2.92;2.10;;;;;;;20.14;79.26;97919.13;4141512;28;20256;-45
2023/07/15 01:09:54;;;;;;;3.53;1.80;;;;;;;20.14;79.59;97916.38;4144153;28;20244;-45
2023/07/15 01:11:56;;;;;;;3.00;2.03;;;;;;;20.08;79.69;97921.28;4134514;28;20213;-46
2023/07/15 01:13:58;;;;;;;2.45;1.95;;;;;;;20.00;80.47;97915.66;4152465;28;20282;-45
2023/07/15 01:16:00;;;;;;;2.50;2.30;;;;;;;19.96;80.22;97915.50;4135202;28;20204;-46
2023/07/15 01:18:02;;;;;;;2.03;1.73;;;;;;;19.92;81.05;97908.94;4141888;28;20243;-45
2023/07/15 01:20:06;;;;;;;2.47;1.83;;;;;;;19.93;80.48;97915.34;4136023;28;20235;-46
2023/07/15 01:22:07;;;;;;;2.42;1.95;;;;;;;19.97;81.05;97921.88;4134151;28;20216;-45
2023/07/15 01:24:09;;;;;;;2.85;1.92;;;;;;;19.94;80.86;97922.53;4135694;28;20209;-47
2023/07/15 01:26:11;;;;;;;2.83;2.13;;;;;;;19.89;81.11;97915.16;4143495;28;20662;-46
2023/07/15 01:28:13;;;;;;;2.33;2.13;;;;;;;19.92;80.85;97920.06;4138747;28;20225;-45
2023/07/15 01:30:15;;;;;;;3.92;2.20;;;;;;;20.02;81.10;97916.16;4141020;28;20212;-45
2023/07/15 01:32:17;;;;;;;2.13;1.90;;;;;;;19.90;81.14;97921.56;4142645;28;20211;-46
2023/07/15 01:34:19;;;;;;;3.28;1.98;;;;;;;19.93;81.54;97920.88;4136512;28;20209;-46
2023/07/15 01:36:24;;;;;;;4.32;3.20;;;;;;;19.86;81.50;97909.44;4135852;28;20209;-45
2023/07/15 01:38:26;;;;;;;1.50;1.40;;;;;;;19.80;81.62;97911.56;4125371;28;20328;-46
2023/07/15 01:40:28;;;;;;;2.03;1.92;;;;;;;19.80;82.32;97911.56;4136021;28;20237;-45
2023/07/15 01:42:29;;;;;;;2.78;2.13;;;;;;;19.76;82.03;97904.19;4144166;28;20263;-45
2023/07/15 01:44:31;;;;;;;2.35;2.17;;;;;;;19.80;82.43;97910.75;4142504;28;20219;-47
2023/07/15 01:46:39;;;;;;;1.98;1.83;;;;;;;19.87;82.71;97902.75;4126472;28;20210;-46
2023/07/15 01:48:41;;;;;;;2.55;2.30;;;;;;;19.76;82.51;97899.47;4151023;28;20589;-45
2023/07/15 01:50:43;;;;;;;2.40;1.83;;;;;;;19.75;83.27;97897.00;4142496;28;20204;-45
2023/07/15 01:52:45;;;;;;;3.17;2.35;;;;;;;19.78;83.29;97899.16;4135948;28;20213;-45
2023/07/15 01:54:46;;;;;;;2.75;2.22;;;;;;;19.58;83.97;97895.00;4141224;28;20649;-45
2023/07/15 01:56:48;;;;;;;2.60;2.40;;;;;;;19.57;84.00;97885.06;4136690;28;20256;-46
2023/07/15 01:58:50;;;;;;;3.20;2.28;;;;;;;19.60;84.16;97894.69;4135525;28;20209;-46
2023/07/15 02:00:52;;;;;;;2.47;2.28;;;;;;;19.54;84.71;97890.44;4142165;28;20225;-46
2023/07/15 02:02:53;;;;;;;4.82;2.47;;;;;;;19.54;84.41;97895.97;4152798;28;20213;-45
2023/07/15 02:04:55;;;;;;;2.75;2.13;;;;;;;19.52;84.35;97879.63;4146955;28;20209;-45
2023/07/15 02:06:57;;;;;;;1.90;1.80;;;;;;;19.56;84.41;97877.03;4144444;28;20218;-45
2023/07/15 02:08:59;;;;;;;2.20;1.80;;;;;;;19.51;84.39;97871.66;4145936;28;20670;-46
2023/07/15 02:11:00;;;;;;;2.40;2.20;;;;;;;19.50;84.39;97872.78;4135769;28;20203;-45
2023/07/15 02:13:02;;;;;;;1.80;1.70;;;;;;;19.48;84.24;97875.91;4128654;28;20641;-45
2023/07/15 02:15:05;;;;;;;3.35;2.03;;;;;;;19.46;84.31;97877.34;4140474;28;20214;-45
2023/07/15 02:17:06;;;;;;;2.92;1.98;;;;;;;19.47;84.35;97870.66;4144134;28;20233;-46
2023/07/15 02:19:08;;;;;;;2.80;2.35;;;;;;;19.49;84.65;97865.59;4137682;28;20218;-45
2023/07/15 02:21:10;;;;;;;3.35;2.47;;;;;;;19.49;84.77;97865.59;4154168;28;20270;-45
2023/07/15 02:23:12;;;;;;;2.97;2.78;;;;;;;19.43;84.45;97862.16;4146693;28;20217;-46
2023/07/15 02:25:14;;;;;;;3.97;3.30;;;;;;;19.37;84.05;97870.97;4143314;28;20205;-46
2023/07/15 02:27:18;;;;;;;4.10;3.30;;;;;;;19.43;84.20;97872.44;4138588;28;20492;-45
2023/07/15 02:29:20;;;;;;;4.80;4.40;;;;;;;19.39;83.84;97871.47;4145364;28;20209;-45
2023/07/15 02:31:21;;;;;;;5.00;4.57;;;;;;;19.38;84.12;97875.38;4144990;28;20891;-46
2023/07/15 02:33:24;;;;;;;4.40;4.00;;;;;;;19.27;83.85;97874.84;4137504;28;20272;-45
2023/07/15 02:35:26;;;;;;;5.28;4.88;;;;;;;19.16;84.24;97872.63;4139078;28;20217;-45
2023/07/15 02:37:27;;;;;;;6.25;4.65;;;;;;;19.10;83.65;97876.69;4139296;28;20229;-45
2023/07/15 02:39:29;;;;;;;5.65;4.97;;;;;;;19.26;83.78;97872.41;4144709;28;20259;-45
2023/07/15 02:41:32;;;;;;;5.00;4.50;;;;;;;19.17;84.03;97868.75;4152313;28;20229;-45
2023/07/15 02:43:33;;;;;;;5.22;4.25;;;;;;;19.08;83.95;97876.19;4138684;28;20232;-45
2023/07/15 02:45:35;;;;;;;4.22;3.83;;;;;;;19.03;83.84;97876.34;4146054;28;20603;-46
2023/07/15 02:47:39;;;;;;;5.20;3.72;;;;;;;19.13;84.14;97870.53;4151204;28;20275;-45
2023/07/15 02:49:41;;;;;;;2.97;2.67;;;;;;;18.99;84.30;97872.59;4129369;28;20210;-45
2023/07/15 02:51:43;;;;;;;4.03;2.65;;;;;;;18.97;83.95;97863.78;4143419;28;20276;-47
2023/07/15 02:53:45;;;;;;;2.83;2.63;;;;;;;18.98;84.06;97863.44;4145855;28;20205;-46
2023/07/15 02:55:48;;;;;;;2.92;2.30;;;;;;;18.91;84.21;97859.50;4143774;28;20205;-45
2023/07/15 02:57:49;;;;;;;1.95;1.73;;;;;;;18.90;84.35;97857.84;4144795;28;20228;-46
2023/07/15 02:59:52;;;;;;;1.95;1.75;;;;;;;18.82;84.28;97866.94;4137739;28;20206;-45
2023/07/15 03:01:54;;;;;;;1.92;1.55;;;;;;;18.80;84.46;97864.53;4138119;28;21272;-45
2023/07/15 03:03:56;;;;;;;4.47;2.20;;;;;;;18.76;84.56;97874.59;4138772;28;20225;-47
2023/07/15 03:05:58;;;;;;;2.67;1.90;;;;;;;18.77;85.11;97870.69;4152752;28;20568;-46
2023/07/15 03:08:00;;;;;;;3.22;2.22;;;;;;;18.75;85.11;97866.59;4139609;28;20237;-45
2023/07/15 03:10:02;;;;;;;2.28;2.08;;;;;;;18.73;85.12;97874.41;4142182;28;20297;-45
2023/07/15 03:12:04;;;;;;;3.17;2.53;;;;;;;18.67;85.33;97859.06;4138607;28;20296;-45
2023/07/15 03:14:06;;;;;;;5.55;2.35;;;;;;;18.66;85.80;97858.22;4155135;28;20328;-45
2023/07/15 03:16:08;;;;;;;4.05;2.60;;;;;;;18.61;85.62;97855.59;4138810;28;20210;-45
2023/07/15 03:18:10;;;;;;;2.28;2.10;;;;;;;18.61;85.90;97852.84;4145144;28;20872;-46
2023/07/15 03:20:23;;;;;;;2.88;2.30;;;;;;;18.63;85.87;97852.50;4144573;28;20285;-45
2023/07/15 03:22:25;;;;;;;4.90;2.60;;;;;;;18.63;85.32;97869.13;4137895;28;20285;-46
2023/07/15 03:24:27;;;;;;;1.90;1.75;;;;;;;18.63;85.62;97875.50;4135261;28;20241;-46
2023/07/15 03:26:28;;;;;;;3.03;1.85;;;;;;;18.63;85.90;97869.94;4140206;28;20210;-45
2023/07/15 03:28:30;;;;;;;2.40;2.22;;;;;;;18.66;86.06;97868.50;4120758;28;20230;-45
2023/07/15 03:30:32;;;;;;;3.60;2.42;;;;;;;18.59;86.36;97871.72;4141545;28;20209;-45
2023/07/15 03:32:36;;;;;;;2.00;1.80;;;;;;;18.61;86.35;97876.94;4137176;28;20581;-45
2023/07/15 03:34:38;;;;;;;2.20;2.00;;;;;;;18.59;86.58;97874.47;4143305;28;20555;-46
2023/07/15 03:36:39;;;;;;;4.93;1.98;;;;;;;18.56;86.48;97879.84;4144819;28;20212;-45
2023/07/15 03:38:41;;;;;;;2.88;2.25;;;;;;;18.51;86.64;97877.22;4149790;28;20315;-45
2023/07/15 03:40:43;;;;;;;1.98;1.83;;;;;;;18.53;87.32;97886.03;4141748;28;20211;-46
2023/07/15 03:42:45;;;;;;;2.25;1.85;;;;;;;18.47;87.24;97888.13;4144823;28;20205;-46
2023/07/15 03:44:47;;;;;;;2.10;1.90;;;;;;;18.44;87.35;97890.72;4142863;28;20208;-46
2023/07/15 03:46:54;;;;;;;1.88;1.60;;;;;;;18.41;87.81;97894.09;4142717;28;20213;-46
2023/07/15 03:48:56;;;;;;;1.73;1.63;;;;;;;18.38;87.94;97894.75;4137524;28;20210;-46
2023/07/15 03:50:58;;;;;;;3.28;2.10;;;;;;;18.46;88.39;97894.78;4132665;28;20848;-46
2023/07/15 03:52:59;;;;;;;2.28;2.08;;;;;;;18.40;88.38;97893.28;4138159;28;20209;-47
2023/07/15 03:55:03;;;;;;;2.08;1.75;;;;;;;18.38;88.20;97897.50;4138898;28;20221;-46
2023/07/15 03:57:05;;;;;;;5.20;2.00;;;;;;;18.44;88.01;97893.47;4143694;28;20229;-46
2023/07/15 03:59:07;;;;;;;1.48;1.38;;;;;;;18.47;88.15;97892.84;4144163;28;20313;-46
2023/07/15 04:01:08;;;;;;;2.22;2.03;;;;;;;18.42;88.35;97892.97;4135063;28;20663;-45
2023/07/15 04:03:10;;;;;;;9.38;2.40;;;;;;;18.43;88.60;97886.28;4124293;28;20214;-46
2023/07/15 04:05:12;;;;;;;2.33;2.00;;;;;;;18.41;88.21;97889.38;4139536;28;20213;-46
2023/07/15 04:07:14;;;;;;;4.90;2.00;;;;;;;18.45;88.51;97884.03;4139906;28;20987;-46
2023/07/15 04:09:16;;;;;;;3.97;1.85;;;;;;;18.41;88.43;97883.00;4133978;28;20209;-46
2023/07/15 04:11:18;;;;;;;3.15;1.83;;;;;;;18.45;88.37;97881.25;4135236;28;20819;-46
2023/07/15 04:13:19;;;;;;;2.42;2.22;;;;;;;18.50;88.53;97875.56;4152876;28;20215;-47
2023/07/15 04:15:21;;;;;;;2.47;2.10;;;;;;;18.47;88.26;97876.22;4149611;28;20205;-48
2023/07/15 04:17:23;;;;;;;1.90;1.70;;;;;;;18.52;88.27;97870.53;4138032;28;20715;-47
2023/07/15 04:19:25;;;;;;;1.85;1.75;;;;;;;18.50;88.04;97870.84;4139771;28;20206;-46
2023/07/15 04:21:27;;;;;;;2.08;1.98;;;;;;;18.53;88.87;97869.41;4136449;28;20225;-46
2023/07/15 04:23:28;;;;;;;3.33;2.63;;;;;;;18.47;88.30;97867.91;4135377;28;20217;-47
2023/07/15 04:25:30;;;;;;;2.85;2.10;;;;;;;18.46;88.61;97864.28;4137788;28;20205;-47
2023/07/15 04:27:32;;;;;;;3.55;1.75;;;;;;;18.44;88.32;97851.91;4137355;28;20225;-46
2023/07/15 04:29:35;;;;;;;2.83;1.30;;;;;;;18.43;88.57;97858.56;4134622;28;20316;-46
2023/07/15 04:31:37;;;;;;;2.92;2.03;;;;;;;18.46;88.58;97864.28;4135605;28;20213;-47
2023/07/15 04:33:39;;;;;;;2.03;1.85;;;;;;;18.49;88.41;97871.16;4122269;28;20210;-46
2023/07/15 04:35:40;;;;;;;2.45;2.00;;;;;;;18.50;88.47;97883.88;4135435;28;20214;-46
2023/07/15 04:37:42;;;;;;;2.10;1.90;;;;;;;18.59;88.72;97885.56;4128077;28;20238;-46
2023/07/15 04:39:44;;;;;;;3.55;2.13;;;;;;;18.56;88.35;97879.84;4151522;28;20245;-46
2023/07/15 04:41:46;;;;;;;2.00;1.80;;;;;;;18.64;88.36;97876.34;4139110;28;20225;-46
2023/07/15 04:43:48;;;;;;;6.40;1.67;;;;;;;18.70;88.03;97872.25;4142595;28;20211;-46
2023/07/15 04:45:50;;;;;;;2.35;1.70;;;;;;;18.70;87.63;97864.78;4134096;28;20216;-46
2023/07/15 04:47:51;;;;;;;2.42;2.00;;;;;;;18.87;87.42;97858.50;4137780;28;20891;-45
2023/07/15 04:49:53;;;;;;;2.95;2.05;;;;;;;18.80;87.10;97858.13;4142333;28;20792;-45
2023/07/15 04:51:55;;;;;;;4.68;1.50;;;;;;;18.86;87.23;97860.44;4119235;28;20209;-46
2023/07/15 04:53:57;;;;;;;3.60;1.95;;;;;;;18.92;86.73;97852.81;4118526;28;20647;-46
2023/07/15 04:55:58;;;;;;;2.58;2.30;;;;;;;18.98;86.44;97849.56;4137051;28;20251;-46
2023/07/15 04:58:00;;;;;;;2.70;2.08;;;;;;;19.03;86.33;97851.38;4138986;28;20270;-46
2023/07/15 05:00:04;;;;;;;2.25;2.15;;;;;;;18.99;86.91;97851.19;4134268;28;20296;-46
2023/07/15 05:02:06;;;;;;;2.30;1.83;;;;;;;19.15;86.93;97843.28;4140151;28;20614;-45
2023/07/15 05:04:08;;;;;;;2.55;2.35;;;;;;;19.06;88.02;97834.13;4134716;28;20433;-46
2023/07/15 05:06:10;;;;;;;2.50;1.92;;;;;;;19.15;87.09;97832.19;4122869;28;20213;-45
2023/07/15 05:08:15;;;;;;;2.03;1.77;;;;;;;19.23;85.98;97835.00;4135210;28;20798;-46
2023/07/15 05:10:17;;;;;;;2.75;2.03;;;;;;;19.30;85.37;97845.63;4137389;28;20213;-46
2023/07/15 05:12:19;;;;;;;2.63;1.73;;;;;;;19.37;85.48;97846.78;4127522;28;20210;-46
2023/07/15 05:14:21;;;;;;;2.08;1.88;;;;;;;19.39;86.41;97847.28;4136476;28;20237;-46
2023/07/15 05:16:22;;;;;;;3.17;1.50;;;;;;;19.46;85.94;97857.94;4149227;28;20212;-46
2023/07/15 05:18:24;;;;;;;2.20;2.00;;;;;;;19.51;86.71;97855.81;4138931;28;20221;-46
2023/07/15 05:20:26;;;;;;;2.15;1.85;;;;;;;19.52;86.50;97843.56;4142334;28;20610;-46
2023/07/15 05:22:28;;;;;;;3.20;2.10;;;;;;;19.51;86.13;97855.00;4135162;28;20225;-46
2023/07/15 05:24:30;;;;;;;2.85;1.70;;;;;;;19.55;86.34;97853.19;4138874;28;20702;-46
2023/07/15 05:26:32;;;;;;;2.35;2.00;;;;;;;19.56;86.58;97850.09;4135138;28;20261;-46
2023/07/15 05:28:35;;;;;;;2.25;1.65;;;;;;;19.56;87.59;97854.81;4135068;28;20237;-46
2023/07/15 05:30:37;;;;;;;5.38;1.77;;;;;;;19.66;86.36;97860.09;4151463;28;20204;-46
2023/07/15 05:32:38;;;;;;;2.53;2.28;;;;;;;19.66;86.94;97860.09;4139075;28;20209;-46
2023/07/15 05:34:40;;;;;;;4.38;2.38;;;;;;;19.74;86.67;97862.06;4145787;28;20777;-46
2023/07/15 05:36:42;;;;;;;3.92;2.10;;;;;;;19.79;87.07;97856.34;4137163;28;20259;-45
2023/07/15 05:38:44;;;;;;;4.13;1.90;;;;;;;19.91;87.62;97857.31;4130723;28;20993;-46
2023/07/15 05:40:45;;;;;;;2.20;1.95;;;;;;;20.02;87.86;97863.38;4141132;28;20213;-46
2023/07/15 05:42:47;;;;;;;2.97;2.22;;;;;;;20.05;87.59;97862.72;4143163;28;20804;-46
2023/07/15 05:44:49;;;;;;;3.45;2.25;;;;;;;20.13;86.99;97871.09;4144789;28;20675;-46
2023/07/15 05:46:51;;;;;;;5.00;1.88;;;;;;;20.25;85.95;97862.09;4146966;28;20255;-47
2023/07/15 05:48:53;;;;;;;4.43;2.00;;;;;;;20.42;85.81;97857.34;4129081;28;20237;-46
2023/07/15 05:50:55;;;;;;;6.13;2.25;;;;;;;20.68;85.36;97846.97;4145443;28;20295;-49
2023/07/15 05:52:56;;;;;;;1.88;1.77;;;;;;;21.05;84.02;97851.78;4143346;28;20212;-46
2023/07/15 05:54:58;;;;;;;2.53;1.92;;;;;;;21.22;83.48;97848.94;4126280;28;20246;-46
2023/07/15 05:57:00;;;;;;;10.95;2.13;;;;;;;21.28;83.18;97852.31;4141345;28;20601;-46
2023/07/15 05:59:02;;;;;;;3.05;1.83;;;;;;;21.24;82.71;97849.41;4138228;28;20205;-46
2023/07/15 06:01:04;;;;;;;3.00;1.70;;;;;;;21.24;82.24;97852.19;4136786;28;20220;-47
2023/07/15 06:03:07;;;;;;;3.00;2.10;;;;;;;21.27;82.94;97850.69;4139643;28;20232;-46
2023/07/15 06:05:09;;;;;;;1.80;1.65;;;;;;;21.19;82.72;97855.16;4142836;28;20212;-46
2023/07/15 06:07:11;;;;;;;1.90;1.70;;;;;;;21.22;83.46;97864.78;4138591;28;20291;-46
2023/07/15 06:09:13;;;;;;;1.98;1.40;;;;;;;21.24;82.81;97862.53;4152353;28;20672;-46
2023/07/15 06:11:16;;;;;;;6.03;1.90;;;;;;;21.28;82.53;97864.28;4145692;28;20725;-47
2023/07/15 06:13:18;;;;;;;2.00;1.60;;;;;;;21.36;82.12;97868.16;4138452;28;20209;-46
2023/07/15 06:15:19;;;;;;;3.67;1.55;;;;;;;21.39;82.13;97873.09;4141191;28;20219;-46
2023/07/15 06:17:21;;;;;;;2.67;2.08;;;;;;;21.48;81.54;97857.97;4129591;28;20407;-46
2023/07/15 06:19:24;;;;;;;2.95;2.08;;;;;;;21.37;81.66;97859.50;4140010;28;20213;-46
2023/07/15 06:21:25;;;;;;;3.42;1.63;;;;;;;21.46;81.77;97860.28;4140509;28;20657;-46
2023/07/15 06:23:27;;;;;;;4.07;1.92;;;;;;;21.56;83.21;97864.63;4145325;28;20216;-46
2023/07/15 06:25:29;;;;;;;4.78;2.00;;;;;;;21.66;83.20;97869.81;4143590;28;20244;-46
2023/07/15 06:27:31;;;;;;;1.67;1.58;;;;;;;21.76;83.73;97861.06;4154334;28;20228;-47
2023/07/15 06:29:33;;;;;;;2.00;1.70;;;;;;;21.88;83.32;97861.16;4138125;28;20215;-46
2023/07/15 06:31:35;;;;;;;3.00;2.75;;;;;;;21.96;83.36;97846.34;4140303;28;20749;-46
2023/07/15 06:33:37;;;;;;;2.10;1.90;;;;;;;22.00;83.14;97841.72;4155245;28;21151;-46
2023/07/15 06:35:39;;;;;;;2.83;2.00;;;;;;;22.03;83.83;97838.28;4136373;28;20645;-46
2023/07/15 06:37:40;;;;;;;2.17;1.75;;;;;;;21.99;84.25;97837.31;4128273;28;20661;-46
2023/07/15 06:39:42;;;;;;;2.22;1.95;;;;;;;22.02;83.41;97842.19;4151456;28;20205;-46
2023/07/15 06:41:44;;;;;;;4.50;1.80;;;;;;;22.04;83.40;97845.47;4153307;28;20671;-46
2023/07/15 06:43:45;;;;;;;2.35;2.05;;;;;;;22.10;82.76;97841.34;4138678;28;20217;-45
2023/07/15 06:45:47;;;;;;;1.75;1.65;;;;;;;21.99;83.52;97837.31;4151167;28;20213;-46
2023/07/15 06:47:49;;;;;;;2.22;1.50;;;;;;;21.98;83.53;97832.91;4138460;28;20232;-46
2023/07/15 06:49:51;;;;;;;2.20;1.95;;;;;;;22.01;84.87;97843.34;4154813;28;20323;-46
2023/07/15 06:51:53;;;;;;;2.88;2.13;;;;;;;22.03;83.97;97847.44;4140510;28;20205;-46
2023/07/15 06:53:55;;;;;;;6.43;1.85;;;;;;;22.09;84.00;97845.25;4146350;28;20212;-46
2023/07/15 06:55:57;;;;;;;1.80;1.67;;;;;;;22.08;83.43;97843.63;4144369;28;20717;-47
2023/07/15 06:58:14;;;;;;;2.70;2.10;;;;;;;22.12;82.93;97855.75;4137675;28;20232;-47
2023/07/15 07:00:16;;;;;;;1.60;1.50;;;;;;;22.13;83.11;97868.50;4138283;28;20209;-46
2023/07/15 07:02:18;;;;;;;2.15;1.88;;;;;;;22.13;83.07;97863.78;4145864;28;20259;-46
2023/07/15 07:04:20;;;;;;;1.58;1.48;;;;;;;22.12;82.39;97861.31;4139433;28;20328;-46
2023/07/15 07:06:21;;;;;;;3.47;1.60;;;;;;;22.12;83.68;97864.09;4138604;28;20208;-48
2023/07/15 07:08:23;;;;;;;2.03;1.80;;;;;;;22.18;82.27;97862.75;4142563;28;20315;-46
2023/07/15 07:10:25;;;;;;;2.55;2.33;;;;;;;22.28;81.88;97868.72;4140402;28;20263;-46
2023/07/15 07:12:27;;;;;;;2.33;1.70;;;;;;;22.38;81.53;97876.66;4141943;28;20204;-46
2023/07/15 07:14:29;;;;;;;3.15;2.00;;;;;;;22.42;85.60;97887.94;4145471;28;20204;-46
2023/07/15 07:16:34;;;;;;;2.10;1.90;;;;;;;22.49;81.97;97888.22;4137649;28;20204;-46
2023/07/15 07:18:36;;;;;;;2.35;1.48;;;;;;;22.59;81.81;97871.09;4143976;28;20283;-47
2023/07/15 07:20:42;;;;;;;4.20;1.75;;;;;;;22.72;77.29;97864.38;4139372;28;20785;-45
2023/07/15 07:22:43;;;;;;;2.78;1.40;;;;;;;22.93;76.04;97870.72;4135932;28;20228;-45
2023/07/15 07:24:46;;;;;;;2.42;1.70;;;;;;;23.36;72.39;97873.84;4138392;28;20208;-46
2023/07/15 07:26:49;;;;;;;2.20;1.58;;;;;;;23.98;68.45;97885.47;4140281;28;20209;-46
2023/07/15 07:28:50;;;;;;;2.63;1.85;;;;;;;24.46;68.92;97884.16;4138453;28;20214;-46
2023/07/15 07:30:52;;;;;;;5.90;1.95;;;;;;;24.96;68.01;97878.84;4139084;28;20641;-46
2023/07/15 07:32:54;;;;;;;1.98;1.77;;;;;;;25.45;64.27;97874.56;4137441;28;20205;-46
2023/07/15 07:34:58;;;;;;;1.85;1.45;;;;;;;25.92;59.98;97866.94;4136750;28;20217;-47
2023/07/15 07:37:00;;;;;;;3.95;1.45;;;;;;;26.13;56.43;97861.81;4137234;28;20626;-47
2023/07/15 07:39:05;;;;;;;2.10;1.83;;;;;;;26.26;56.16;97871.72;4132977;28;20212;-46
2023/07/15 07:41:08;;;;;;;2.35;1.60;;;;;;;26.23;56.33;97868.84;4125832;28;20260;-46
2023/07/15 07:43:10;;;;;;;1.35;1.25;;;;;;;26.01;56.45;97884.41;4132810;28;20604;-46
2023/07/15 07:45:16;;;;;;;3.40;1.60;;;;;;;25.89;55.64;97890.13;4142916;28;20224;-46
2023/07/15 07:47:18;;;;;;;1.83;1.40;;;;;;;26.00;56.86;97888.34;4139351;28;20233;-47
2023/07/15 07:49:20;;;;;;;2.83;1.95;;;;;;;26.26;55.91;97894.16;4138188;28;20671;-46
2023/07/15 07:51:22;;;;;;;1.95;1.50;;;;;;;26.37;55.86;97900.00;4141531;28;20217;-47
2023/07/15 07:53:24;;;;;;;3.38;1.63;;;;;;;26.31;55.28;97918.31;4135239;28;20256;-46
2023/07/15 07:55:26;;;;;;;7.30;1.70;;;;;;;26.57;55.78;97927.78;4121021;28;20213;-46
2023/07/15 07:57:28;;;;;;;1.95;1.55;;;;;;;26.60;55.29;97935.44;4139667;28;20225;-46
2023/07/15 07:59:30;;;;;;;4.00;1.75;;;;;;;26.48;55.48;97941.19;4144826;28;20236;-46
2023/07/15 08:01:32;;;;;;;2.00;1.70;;;;;;;26.48;56.44;97929.97;4122174;28;20250;-45
2023/07/15 08:03:34;;;;;;;2.33;1.55;;;;;;;26.34;56.23;97929.66;4135867;28;20228;-46
2023/07/15 08:05:44;;;;;;;1.50;1.27;;;;;;;26.41;56.83;97943.84;4138080;28;20299;-46
2023/07/15 08:07:46;;;;;;;3.38;1.50;;;;;;;26.24;55.43;97935.81;4136622;28;20714;-46
2023/07/15 08:09:48;;;;;;;2.15;1.95;;;;;;;26.14;55.86;97935.56;4132733;28;20202;-45
2023/07/15 08:11:53;;;;;;;2.97;1.70;;;;;;;26.07;55.29;97941.81;4134409;28;20244;-45
2023/07/15 08:13:55;;;;;;;4.53;2.10;;;;;;;25.97;55.20;97942.38;4141969;28;20213;-47
2023/07/15 08:15:58;;;;;;;3.38;1.27;;;;;;;25.85;55.67;97933.25;4136826;28;20291;-46
2023/07/15 08:18:06;;;;;;;1.70;1.60;;;;;;;25.83;56.20;97936.41;4133753;28;20372;-46
2023/07/15 08:20:08;;;;;;;3.22;1.38;;;;;;;25.84;56.10;97932.41;4149246;28;20262;-45
2023/07/15 08:22:10;;;;;;;4.53;1.70;;;;;;;25.90;57.04;97908.56;4136778;28;20643;-48
2023/07/15 08:24:12;;;;;;;2.33;1.40;;;;;;;25.84;55.99;97909.97;4122413;28;20213;-45
2023/07/15 08:26:14;;;;;;;8.80;1.73;;;;;;;26.04;56.26;97925.72;4138135;28;20294;-46
2023/07/15 08:28:17;;;;;;;5.55;1.67;;;;;;;26.32;55.48;97915.16;4134963;28;20240;-45
2023/07/15 08:30:20;;;;;;;2.47;1.60;;;;;;;26.48;55.53;97917.91;4137091;28;20655;-45
2023/07/15 08:32:22;;;;;;;2.28;1.42;;;;;;;26.58;54.46;97929.41;4152423;28;20646;-45
2023/07/15 08:34:24;;;;;;;2.92;1.52;;;;;;;26.71;55.45;97922.47;4147238;28;20201;-46
2023/07/15 08:36:26;;;;;;;1.55;1.40;;;;;;;26.67;54.99;97927.16;4144174;28;20782;-45
2023/07/15 08:38:28;;;;;;;2.53;1.38;;;;;;;26.82;54.96;97922.69;4136539;28;20236;-45
2023/07/15 08:40:30;;;;;;;4.15;1.40;;;;;;;26.86;55.08;97924.38;4120831;28;20288;-45
2023/07/15 08:42:35;;;;;;;2.50;1.70;;;;;;;26.71;55.67;97933.69;4119334;28;20226;-47
2023/07/15 08:44:37;;;;;;;5.47;1.40;;;;;;;26.74;56.45;97921.72;4138558;28;20209;-46
2023/07/15 08:46:39;;;;;;;2.63;1.48;;;;;;;26.52;56.42;97925.22;4127256;28;20659;-49
2023/07/15 08:48:41;;;;;;;2.00;1.80;;;;;;;26.35;56.83;97920.03;4150942;28;20297;-46
2023/07/15 08:50:44;;;;;;;5.30;1.80;;;;;;;26.36;58.72;97918.84;4126865;28;20265;-46
2023/07/15 08:52:46;;;;;;;2.95;2.03;;;;;;;26.10;58.81;97924.28;4136481;28;20256;-46
2023/07/15 08:54:49;;;;;;;4.65;1.77;;;;;;;26.16;58.48;97922.81;4135763;28;20203;-46
2023/07/15 08:56:51;;;;;;;2.85;1.73;;;;;;;26.11;59.14;97923.09;4141173;28;20212;-47
2023/07/15 08:58:54;;;;;;;2.35;1.30;;;;;;;26.12;59.32;97927.50;4123679;28;20205;-46
2023/07/15 09:00:56;;;;;;;5.22;3.28;;;;;;;26.18;59.32;97930.88;4143765;28;20219;-46
2023/07/15 09:02:57;;;;;;;3.45;2.03;;;;;;;26.18;59.51;97931.66;4144110;28;20228;-45
2023/07/15 09:04:59;;;;;;;3.00;1.67;;;;;;;26.17;60.05;97938.47;4134346;28;20209;-47
2023/07/15 09:07:01;;;;;;;7.43;1.80;;;;;;;26.16;60.34;97939.63;4126774;28;20272;-45
2023/07/15 09:09:06;;;;;;;3.85;2.40;;;;;;;26.28;60.67;97947.94;4141297;28;20197;-46
2023/07/15 09:11:09;;;;;;;3.03;1.83;;;;;;;26.16;60.85;97939.63;4142799;28;20208;-46
2023/07/15 09:13:10;;;;;;;4.53;2.55;;;;;;;26.21;60.88;97950.59;4119607;28;20212;-46
2023/07/15 09:15:13;;;;;;;4.95;2.67;;;;;;;26.18;61.17;97940.06;4134466;28;20680;-45
2023/07/15 09:17:24;;;;;;;7.00;1.95;;;;;;;26.10;62.01;97949.50;4132869;28;20347;-46
2023/07/15 09:19:28;;;;;;;2.78;2.28;;;;;;;26.00;62.78;97947.25;4133009;28;20202;-45
2023/07/15 09:21:30;;;;;;;4.03;2.13;;;;;;;26.00;63.42;97941.66;4137795;28;20942;-46
2023/07/15 09:23:32;;;;;;;4.32;2.20;;;;;;;25.86;63.36;97963.69;4138989;28;20653;-45
2023/07/15 09:25:35;;;;;;;2.38;1.92;;;;;;;25.75;63.48;97979.47;4141241;28;20642;-46
2023/07/15 09:27:42;;;;;;;4.22;2.25;;;;;;;25.62;63.93;97986.31;4143611;28;20232;-45
2023/07/15 09:29:49;;;;;;;2.88;2.22;;;;;;;25.48;64.55;97991.56;4138290;28;20672;-46
2023/07/15 09:31:51;;;;;;;3.25;2.08;;;;;;;25.55;64.51;97983.34;4139596;28;20264;-45
2023/07/15 09:34:03;;;;;;;5.38;2.10;;;;;;;25.41;64.20;97985.78;4144247;28;20530;-46
2023/07/15 09:36:06;;;;;;;4.20;1.80;;;;;;;25.37;65.06;97984.00;4134500;28;20213;-46
2023/07/15 09:38:10;;;;;;;2.85;2.38;;;;;;;25.34;65.31;97968.72;4132471;28;20232;-46